Orbital elements of COSMOS 970 DEB
| Launched | 20 December 1977 |
| Flight ended | – |
| Launch site | Tyuratam Missile and Space Center, Kazakhstan (Also known as Baikonur Cosmodrome) |
| Owner | Commonwealth of Independent States (former USSR) |
| NORAD ID | 65001 |
| Date fetched |
Epoch osculation |
Inc. [°] |
Ecc. | RA asc node [hr] |
Arg Peri. [°] |
Mean anom [°] |
Mean motion [rev/day] |
Abs. mag |
| Date fetched |
Epoch osculation |
Inc. [°] |
Ecc. | RA asc node [hr] |
Arg Peri. [°] |
Mean anom [°] |
Mean motion [rev/day] |
Abs. mag |
| 2026 May 03 17:57 | 2026 Apr 30 10:13:56 | 65.8196 | 0.01065 | 11.2969 | 254.8358 | 117.4821 | 13.36832 | – |
| 2026 May 02 17:57 | 2026 Apr 30 10:13:56 | 65.8196 | 0.01065 | 11.2969 | 254.8358 | 117.4821 | 13.36832 | – |
| 2026 May 01 17:56 | 2026 Apr 30 10:13:56 | 65.8196 | 0.01065 | 11.2969 | 254.8358 | 117.4821 | 13.36832 | – |
| 2026 Apr 30 17:56 | 2026 Apr 30 10:13:56 | 65.8196 | 0.01065 | 11.2969 | 254.8358 | 117.4821 | 13.36832 | – |
| 2026 Apr 29 17:57 | 2026 Apr 20 11:26:50 | 65.8210 | 0.01066 | 12.8324 | 258.9920 | 117.4821 | 13.36832 | – |
| 2026 Apr 28 17:56 | 2026 Apr 20 11:26:50 | 65.8210 | 0.01066 | 12.8324 | 258.9920 | 117.4821 | 13.36832 | – |
| 2026 Apr 27 17:58 | 2026 Apr 20 11:26:50 | 65.8210 | 0.01066 | 12.8324 | 258.9920 | 117.4821 | 13.36832 | – |
| 2026 Apr 26 17:58 | 2026 Apr 20 11:26:50 | 65.8210 | 0.01066 | 12.8324 | 258.9920 | 117.4821 | 13.36832 | – |
| 2026 Apr 25 17:58 | 2026 Apr 20 11:26:50 | 65.8210 | 0.01066 | 12.8324 | 258.9920 | 117.4821 | 13.36832 | – |
| 2026 Apr 24 17:59 | 2026 Apr 20 11:26:50 | 65.8210 | 0.01066 | 12.8324 | 258.9920 | 117.4821 | 13.36832 | – |
| 2026 Apr 23 17:57 | 2026 Apr 19 00:22:35 | 65.8210 | 0.01066 | 13.0579 | 259.6071 | 117.4821 | 13.36832 | – |
| 2026 Apr 22 17:57 | 2026 Apr 19 00:22:35 | 65.8210 | 0.01066 | 13.0579 | 259.6071 | 117.4821 | 13.36832 | – |
| 2026 Apr 21 17:57 | 2026 Apr 19 00:22:35 | 65.8210 | 0.01066 | 13.0579 | 259.6071 | 117.4821 | 13.36832 | – |
| 2026 Apr 20 17:57 | 2026 Apr 19 00:22:35 | 65.8210 | 0.01066 | 13.0579 | 259.6071 | 117.4821 | 13.36832 | – |
| 2026 Apr 19 17:58 | 2026 Apr 19 00:22:35 | 65.8210 | 0.01066 | 13.0579 | 259.6071 | 117.4821 | 13.36832 | – |
| 2026 Apr 18 17:56 | 2026 Apr 11 13:48:23 | 65.8210 | 0.01066 | 14.2061 | 262.7136 | 117.4821 | 13.36832 | – |
| 2026 Apr 16 17:57 | 2026 Apr 11 13:48:23 | 65.8210 | 0.01066 | 14.2061 | 262.7136 | 117.4821 | 13.36832 | – |
| 2026 Apr 14 17:57 | 2026 Apr 11 13:48:23 | 65.8210 | 0.01066 | 14.2061 | 262.7136 | 117.4821 | 13.36832 | – |
| 2026 Apr 13 17:57 | 2026 Apr 11 13:48:23 | 65.8210 | 0.01066 | 14.2061 | 262.7136 | 117.4821 | 13.36832 | – |
| 2026 Apr 12 17:57 | 2026 Apr 04 14:48:38 | 65.8203 | 0.01066 | 15.2801 | 265.6347 | 117.4821 | 13.36832 | – |
| 2026 Apr 11 17:57 | 2026 Apr 04 14:48:38 | 65.8203 | 0.01066 | 15.2801 | 265.6347 | 117.4821 | 13.36832 | – |
| 2026 Apr 10 17:58 | 2026 Apr 04 14:48:38 | 65.8203 | 0.01066 | 15.2801 | 265.6347 | 117.4821 | 13.36832 | – |
| 2026 Apr 09 18:01 | 2026 Apr 04 14:48:38 | 65.8203 | 0.01066 | 15.2801 | 265.6347 | 117.4821 | 13.36832 | – |
| 2026 Apr 08 17:57 | 2026 Apr 04 14:48:38 | 65.8203 | 0.01066 | 15.2801 | 265.6347 | 117.4821 | 13.36832 | – |
| 2026 Apr 07 17:57 | 2026 Mar 29 20:51:53 | 65.8196 | 0.01065 | 16.1671 | 268.0677 | 117.4821 | 13.36832 | – |
| 2026 Apr 06 17:57 | 2026 Mar 29 20:51:53 | 65.8196 | 0.01065 | 16.1671 | 268.0677 | 117.4821 | 13.36832 | – |